sensor_id;sensor_type;location;lat;lon;timestamp;temperature;humidity
11908;DHT22;6014;47.690;9.130;2024-02-15T00:01:46;5.60;79.80
11908;DHT22;6014;47.690;9.130;2024-02-15T00:04:14;5.50;80.90
11908;DHT22;6014;47.690;9.130;2024-02-15T00:07:01;5.50;81.70
11908;DHT22;6014;47.690;9.130;2024-02-15T00:09:29;5.40;81.30
11908;DHT22;6014;47.690;9.130;2024-02-15T00:11:57;5.40;82.80
11908;DHT22;6014;47.690;9.130;2024-02-15T00:14:26;5.30;83.80
11908;DHT22;6014;47.690;9.130;2024-02-15T00:16:57;5.30;84.10
11908;DHT22;6014;47.690;9.130;2024-02-15T00:19:25;5.20;84.50
11908;DHT22;6014;47.690;9.130;2024-02-15T00:21:57;5.20;85.10
11908;DHT22;6014;47.690;9.130;2024-02-15T00:24:41;5.10;85.40
11908;DHT22;6014;47.690;9.130;2024-02-15T00:27:11;5.10;86.90
11908;DHT22;6014;47.690;9.130;2024-02-15T00:29:39;5.00;87.30
11908;DHT22;6014;47.690;9.130;2024-02-15T00:32:16;4.90;88.30
11908;DHT22;6014;47.690;9.130;2024-02-15T00:34:47;4.90;90.00
11908;DHT22;6014;47.690;9.130;2024-02-15T00:37:15;4.80;90.40
11908;DHT22;6014;47.690;9.130;2024-02-15T00:39:43;4.70;90.60
11908;DHT22;6014;47.690;9.130;2024-02-15T00:42:15;4.80;91.60
11908;DHT22;6014;47.690;9.130;2024-02-15T00:44:45;4.70;91.80
11908;DHT22;6014;47.690;9.130;2024-02-15T00:47:15;4.90;92.20
11908;DHT22;6014;47.690;9.130;2024-02-15T00:49:45;4.70;92.60
11908;DHT22;6014;47.690;9.130;2024-02-15T00:52:13;4.70;93.20
11908;DHT22;6014;47.690;9.130;2024-02-15T00:54:58;4.70;93.20
11908;DHT22;6014;47.690;9.130;2024-02-15T00:57:26;4.70;92.70
11908;DHT22;6014;47.690;9.130;2024-02-15T00:59:54;4.60;92.50
11908;DHT22;6014;47.690;9.130;2024-02-15T01:02:23;4.60;93.20
11908;DHT22;6014;47.690;9.130;2024-02-15T01:04:52;4.50;94.10
11908;DHT22;6014;47.690;9.130;2024-02-15T01:07:26;4.40;95.40
11908;DHT22;6014;47.690;9.130;2024-02-15T01:09:55;4.40;96.30
11908;DHT22;6014;47.690;9.130;2024-02-15T01:12:24;4.30;96.50
11908;DHT22;6014;47.690;9.130;2024-02-15T01:14:52;4.20;97.00
11908;DHT22;6014;47.690;9.130;2024-02-15T01:17:20;4.30;97.10
11908;DHT22;6014;47.690;9.130;2024-02-15T01:19:49;4.20;97.90
11908;DHT22;6014;47.690;9.130;2024-02-15T01:22:17;4.10;97.90
11908;DHT22;6014;47.690;9.130;2024-02-15T01:24:46;4.20;98.50
11908;DHT22;6014;47.690;9.130;2024-02-15T01:27:14;4.20;98.60
11908;DHT22;6014;47.690;9.130;2024-02-15T01:29:42;4.10;98.20
11908;DHT22;6014;47.690;9.130;2024-02-15T01:32:10;4.00;98.50
11908;DHT22;6014;47.690;9.130;2024-02-15T01:34:38;4.00;98.50
11908;DHT22;6014;47.690;9.130;2024-02-15T01:37:09;3.90;99.30
11908;DHT22;6014;47.690;9.130;2024-02-15T01:39:37;4.00;99.80
11908;DHT22;6014;47.690;9.130;2024-02-15T01:42:05;3.80;99.90
11908;DHT22;6014;47.690;9.130;2024-02-15T01:44:34;3.70;99.90
11908;DHT22;6014;47.690;9.130;2024-02-15T01:47:04;3.90;99.90
11908;DHT22;6014;47.690;9.130;2024-02-15T01:49:32;3.80;99.90
11908;DHT22;6014;47.690;9.130;2024-02-15T01:52:05;3.80;99.90
11908;DHT22;6014;47.690;9.130;2024-02-15T01:54:36;3.70;99.90
11908;DHT22;6014;47.690;9.130;2024-02-15T01:57:06;3.80;99.90
11908;DHT22;6014;47.690;9.130;2024-02-15T01:59:34;3.60;99.90
11908;DHT22;6014;47.690;9.130;2024-02-15T02:02:04;3.60;99.90
11908;DHT22;6014;47.690;9.130;2024-02-15T02:04:33;3.50;99.90
11908;DHT22;6014;47.690;9.130;2024-02-15T02:07:01;3.40;99.90
11908;DHT22;6014;47.690;9.130;2024-02-15T02:09:29;3.50;99.90
11908;DHT22;6014;47.690;9.130;2024-02-15T02:12:00;3.60;99.90
11908;DHT22;6014;47.690;9.130;2024-02-15T02:14:28;3.40;99.90
11908;DHT22;6014;47.690;9.130;2024-02-15T02:16:57;3.40;99.90
11908;DHT22;6014;47.690;9.130;2024-02-15T02:19:38;3.40;99.90
11908;DHT22;6014;47.690;9.130;2024-02-15T02:22:20;3.40;99.90
11908;DHT22;6014;47.690;9.130;2024-02-15T02:24:59;3.40;99.90
11908;DHT22;6014;47.690;9.130;2024-02-15T02:27:32;3.30;99.90
11908;DHT22;6014;47.690;9.130;2024-02-15T02:30:00;3.40;99.90
11908;DHT22;6014;47.690;9.130;2024-02-15T02:32:33;3.30;99.90
11908;DHT22;6014;47.690;9.130;2024-02-15T02:35:03;3.10;99.90
11908;DHT22;6014;47.690;9.130;2024-02-15T02:37:34;3.20;99.90
11908;DHT22;6014;47.690;9.130;2024-02-15T02:40:06;3.20;99.90
11908;DHT22;6014;47.690;9.130;2024-02-15T02:42:36;3.20;99.90
11908;DHT22;6014;47.690;9.130;2024-02-15T02:45:04;3.10;99.90
11908;DHT22;6014;47.690;9.130;2024-02-15T02:47:33;3.10;99.90
11908;DHT22;6014;47.690;9.130;2024-02-15T02:50:01;3.00;99.90
11908;DHT22;6014;47.690;9.130;2024-02-15T02:52:30;3.00;99.90
11908;DHT22;6014;47.690;9.130;2024-02-15T02:54:58;2.80;99.90
11908;DHT22;6014;47.690;9.130;2024-02-15T02:57:27;2.90;99.90
11908;DHT22;6014;47.690;9.130;2024-02-15T02:59:55;3.00;99.90
11908;DHT22;6014;47.690;9.130;2024-02-15T03:02:24;2.90;99.90
11908;DHT22;6014;47.690;9.130;2024-02-15T03:04:52;2.90;99.90
11908;DHT22;6014;47.690;9.130;2024-02-15T03:07:20;2.80;99.90
11908;DHT22;6014;47.690;9.130;2024-02-15T03:09:50;2.80;99.90
11908;DHT22;6014;47.690;9.130;2024-02-15T03:12:18;2.80;99.90
11908;DHT22;6014;47.690;9.130;2024-02-15T03:14:47;2.70;99.90
11908;DHT22;6014;47.690;9.130;2024-02-15T03:17:15;2.70;99.90
11908;DHT22;6014;47.690;9.130;2024-02-15T03:19:43;2.60;99.90
11908;DHT22;6014;47.690;9.130;2024-02-15T03:22:12;2.80;99.90
11908;DHT22;6014;47.690;9.130;2024-02-15T03:24:40;2.80;99.90
11908;DHT22;6014;47.690;9.130;2024-02-15T03:27:09;2.80;99.90
11908;DHT22;6014;47.690;9.130;2024-02-15T03:29:56;2.70;99.90
11908;DHT22;6014;47.690;9.130;2024-02-15T03:32:27;2.70;99.90
11908;DHT22;6014;47.690;9.130;2024-02-15T03:34:55;2.60;99.90
11908;DHT22;6014;47.690;9.130;2024-02-15T03:37:23;2.60;99.90
11908;DHT22;6014;47.690;9.130;2024-02-15T03:39:51;2.70;99.90
11908;DHT22;6014;47.690;9.130;2024-02-15T03:42:19;2.70;99.90
11908;DHT22;6014;47.690;9.130;2024-02-15T03:44:47;2.60;99.90
11908;DHT22;6014;47.690;9.130;2024-02-15T03:47:17;2.60;99.90
11908;DHT22;6014;47.690;9.130;2024-02-15T03:49:45;2.70;99.90
11908;DHT22;6014;47.690;9.130;2024-02-15T03:52:14;2.70;99.90
11908;DHT22;6014;47.690;9.130;2024-02-15T03:54:42;2.70;99.90
11908;DHT22;6014;47.690;9.130;2024-02-15T03:57:10;2.50;99.90
11908;DHT22;6014;47.690;9.130;2024-02-15T03:59:39;2.40;99.90
11908;DHT22;6014;47.690;9.130;2024-02-15T04:02:07;2.30;99.90
11908;DHT22;6014;47.690;9.130;2024-02-15T04:04:40;2.40;99.90
11908;DHT22;6014;47.690;9.130;2024-02-15T04:07:10;2.30;99.90
11908;DHT22;6014;47.690;9.130;2024-02-15T04:09:38;2.30;99.90
11908;DHT22;6014;47.690;9.130;2024-02-15T04:12:07;2.50;99.90
11908;DHT22;6014;47.690;9.130;2024-02-15T04:14:35;2.30;99.90
11908;DHT22;6014;47.690;9.130;2024-02-15T04:17:05;2.30;99.90
11908;DHT22;6014;47.690;9.130;2024-02-15T04:19:33;2.30;99.90
11908;DHT22;6014;47.690;9.130;2024-02-15T04:22:15;2.30;99.90
11908;DHT22;6014;47.690;9.130;2024-02-15T04:24:43;2.30;99.90
11908;DHT22;6014;47.690;9.130;2024-02-15T04:27:12;2.30;99.90
11908;DHT22;6014;47.690;9.130;2024-02-15T04:29:41;2.30;99.90
11908;DHT22;6014;47.690;9.130;2024-02-15T04:32:12;2.30;99.90
11908;DHT22;6014;47.690;9.130;2024-02-15T04:34:40;2.20;99.90
11908;DHT22;6014;47.690;9.130;2024-02-15T04:37:08;2.20;99.90
11908;DHT22;6014;47.690;9.130;2024-02-15T04:39:37;2.20;99.90
11908;DHT22;6014;47.690;9.130;2024-02-15T04:42:06;2.20;99.90
11908;DHT22;6014;47.690;9.130;2024-02-15T04:44:37;2.30;99.90
11908;DHT22;6014;47.690;9.130;2024-02-15T04:47:06;2.20;99.90
11908;DHT22;6014;47.690;9.130;2024-02-15T04:49:35;2.20;99.90
11908;DHT22;6014;47.690;9.130;2024-02-15T04:52:05;2.10;99.90
11908;DHT22;6014;47.690;9.130;2024-02-15T04:54:34;2.10;99.90
11908;DHT22;6014;47.690;9.130;2024-02-15T04:57:03;2.10;99.90
11908;DHT22;6014;47.690;9.130;2024-02-15T04:59:33;2.00;99.90
11908;DHT22;6014;47.690;9.130;2024-02-15T05:02:02;1.90;99.90
11908;DHT22;6014;47.690;9.130;2024-02-15T05:04:30;1.90;99.90
11908;DHT22;6014;47.690;9.130;2024-02-15T05:07:03;1.90;99.90
11908;DHT22;6014;47.690;9.130;2024-02-15T05:09:31;1.90;99.90
11908;DHT22;6014;47.690;9.130;2024-02-15T05:12:07;2.00;99.90
11908;DHT22;6014;47.690;9.130;2024-02-15T05:14:35;1.90;99.90
11908;DHT22;6014;47.690;9.130;2024-02-15T05:17:06;1.90;99.90
11908;DHT22;6014;47.690;9.130;2024-02-15T05:19:36;1.90;99.90
11908;DHT22;6014;47.690;9.130;2024-02-15T05:22:05;2.00;99.90
11908;DHT22;6014;47.690;9.130;2024-02-15T05:24:33;2.00;99.90
11908;DHT22;6014;47.690;9.130;2024-02-15T05:27:02;2.00;99.90
11908;DHT22;6014;47.690;9.130;2024-02-15T05:29:32;2.00;99.90
11908;DHT22;6014;47.690;9.130;2024-02-15T05:32:03;1.90;99.90
11908;DHT22;6014;47.690;9.130;2024-02-15T05:34:31;1.90;99.90
11908;DHT22;6014;47.690;9.130;2024-02-15T05:36:59;1.80;99.90
11908;DHT22;6014;47.690;9.130;2024-02-15T05:39:27;1.80;99.90
11908;DHT22;6014;47.690;9.130;2024-02-15T05:41:55;1.70;99.90
11908;DHT22;6014;47.690;9.130;2024-02-15T05:44:27;1.70;99.90
11908;DHT22;6014;47.690;9.130;2024-02-15T05:46:56;1.70;99.90
11908;DHT22;6014;47.690;9.130;2024-02-15T05:49:24;1.70;99.90
11908;DHT22;6014;47.690;9.130;2024-02-15T05:51:52;1.70;99.90
11908;DHT22;6014;47.690;9.130;2024-02-15T05:54:21;1.60;99.90
11908;DHT22;6014;47.690;9.130;2024-02-15T05:56:50;1.50;99.90
11908;DHT22;6014;47.690;9.130;2024-02-15T05:59:20;1.50;99.90
11908;DHT22;6014;47.690;9.130;2024-02-15T06:01:49;1.50;99.90
11908;DHT22;6014;47.690;9.130;2024-02-15T06:04:18;1.40;99.90
11908;DHT22;6014;47.690;9.130;2024-02-15T06:06:46;1.50;99.90
11908;DHT22;6014;47.690;9.130;2024-02-15T06:09:15;1.40;99.90
11908;DHT22;6014;47.690;9.130;2024-02-15T06:11:44;1.40;99.90
11908;DHT22;6014;47.690;9.130;2024-02-15T06:14:12;1.30;99.90
11908;DHT22;6014;47.690;9.130;2024-02-15T06:16:43;1.30;99.90
11908;DHT22;6014;47.690;9.130;2024-02-15T06:19:12;1.30;99.90
11908;DHT22;6014;47.690;9.130;2024-02-15T06:21:43;1.20;99.90
11908;DHT22;6014;47.690;9.130;2024-02-15T06:24:28;1.20;99.90
11908;DHT22;6014;47.690;9.130;2024-02-15T06:26:56;1.30;99.90
11908;DHT22;6014;47.690;9.130;2024-02-15T06:29:26;1.40;99.90
11908;DHT22;6014;47.690;9.130;2024-02-15T06:32:22;1.50;99.90
11908;DHT22;6014;47.690;9.130;2024-02-15T06:35:08;1.40;99.90
11908;DHT22;6014;47.690;9.130;2024-02-15T06:37:55;1.50;99.90
11908;DHT22;6014;47.690;9.130;2024-02-15T06:40:40;1.40;99.90
11908;DHT22;6014;47.690;9.130;2024-02-15T06:43:08;1.40;99.90
11908;DHT22;6014;47.690;9.130;2024-02-15T06:45:37;1.40;99.90
11908;DHT22;6014;47.690;9.130;2024-02-15T06:48:07;1.50;99.90
11908;DHT22;6014;47.690;9.130;2024-02-15T06:50:35;1.50;99.90
11908;DHT22;6014;47.690;9.130;2024-02-15T06:53:06;1.60;99.90
11908;DHT22;6014;47.690;9.130;2024-02-15T06:55:37;1.60;99.90
11908;DHT22;6014;47.690;9.130;2024-02-15T06:58:06;1.70;99.90
11908;DHT22;6014;47.690;9.130;2024-02-15T07:00:34;1.80;99.90
11908;DHT22;6014;47.690;9.130;2024-02-15T07:03:02;1.80;99.90
11908;DHT22;6014;47.690;9.130;2024-02-15T07:05:31;2.00;99.90
11908;DHT22;6014;47.690;9.130;2024-02-15T07:08:00;2.20;99.90
11908;DHT22;6014;47.690;9.130;2024-02-15T07:10:29;2.40;99.90
11908;DHT22;6014;47.690;9.130;2024-02-15T07:12:58;2.80;99.90
11908;DHT22;6014;47.690;9.130;2024-02-15T07:15:28;3.20;99.90
11908;DHT22;6014;47.690;9.130;2024-02-15T07:17:58;3.30;99.90
11908;DHT22;6014;47.690;9.130;2024-02-15T07:20:28;3.50;99.90
11908;DHT22;6014;47.690;9.130;2024-02-15T07:22:56;4.00;99.90
11908;DHT22;6014;47.690;9.130;2024-02-15T07:25:25;4.00;99.90
11908;DHT22;6014;47.690;9.130;2024-02-15T07:27:54;4.40;99.90
11908;DHT22;6014;47.690;9.130;2024-02-15T07:30:23;4.40;99.90
11908;DHT22;6014;47.690;9.130;2024-02-15T07:32:52;4.70;99.90
11908;DHT22;6014;47.690;9.130;2024-02-15T07:35:20;5.20;99.90
11908;DHT22;6014;47.690;9.130;2024-02-15T07:37:52;5.60;99.90
11908;DHT22;6014;47.690;9.130;2024-02-15T07:40:22;6.00;99.90
11908;DHT22;6014;47.690;9.130;2024-02-15T07:42:57;6.30;99.90
11908;DHT22;6014;47.690;9.130;2024-02-15T07:45:25;6.50;99.90
11908;DHT22;6014;47.690;9.130;2024-02-15T07:47:54;6.50;99.90
11908;DHT22;6014;47.690;9.130;2024-02-15T07:50:28;6.40;99.90
11908;DHT22;6014;47.690;9.130;2024-02-15T07:52:58;6.30;99.90
11908;DHT22;6014;47.690;9.130;2024-02-15T07:55:26;6.60;99.90
11908;DHT22;6014;47.690;9.130;2024-02-15T07:57:56;6.60;99.90
11908;DHT22;6014;47.690;9.130;2024-02-15T08:00:25;6.90;99.90
11908;DHT22;6014;47.690;9.130;2024-02-15T08:03:04;6.60;99.90
11908;DHT22;6014;47.690;9.130;2024-02-15T08:05:32;6.50;99.90
11908;DHT22;6014;47.690;9.130;2024-02-15T08:08:00;6.70;99.90
11908;DHT22;6014;47.690;9.130;2024-02-15T08:10:31;6.60;99.90
11908;DHT22;6014;47.690;9.130;2024-02-15T08:13:01;6.40;99.90
11908;DHT22;6014;47.690;9.130;2024-02-15T08:15:29;6.50;99.90
11908;DHT22;6014;47.690;9.130;2024-02-15T08:17:57;6.60;99.90
11908;DHT22;6014;47.690;9.130;2024-02-15T08:20:26;6.70;99.90
11908;DHT22;6014;47.690;9.130;2024-02-15T08:22:58;6.80;99.90
11908;DHT22;6014;47.690;9.130;2024-02-15T08:25:26;7.00;99.90
11908;DHT22;6014;47.690;9.130;2024-02-15T08:27:55;7.20;99.90
11908;DHT22;6014;47.690;9.130;2024-02-15T08:30:24;7.60;99.20
11908;DHT22;6014;47.690;9.130;2024-02-15T08:32:54;7.70;97.20
11908;DHT22;6014;47.690;9.130;2024-02-15T08:35:22;7.80;98.00
11908;DHT22;6014;47.690;9.130;2024-02-15T08:37:51;8.10;97.00
11908;DHT22;6014;47.690;9.130;2024-02-15T08:40:20;8.40;94.70
11908;DHT22;6014;47.690;9.130;2024-02-15T08:42:52;8.60;93.70
11908;DHT22;6014;47.690;9.130;2024-02-15T08:45:21;8.70;91.90
11908;DHT22;6014;47.690;9.130;2024-02-15T08:47:51;8.90;92.10
11908;DHT22;6014;47.690;9.130;2024-02-15T08:50:20;8.90;90.80
11908;DHT22;6014;47.690;9.130;2024-02-15T08:52:50;9.00;90.80
11908;DHT22;6014;47.690;9.130;2024-02-15T08:55:25;9.00;90.50
11908;DHT22;6014;47.690;9.130;2024-02-15T08:57:54;9.00;87.60
11908;DHT22;6014;47.690;9.130;2024-02-15T09:00:23;9.20;87.10
11908;DHT22;6014;47.690;9.130;2024-02-15T09:02:55;9.10;83.10
11908;DHT22;6014;47.690;9.130;2024-02-15T09:05:24;9.30;81.90
11908;DHT22;6014;47.690;9.130;2024-02-15T09:07:53;9.40;78.80
11908;DHT22;6014;47.690;9.130;2024-02-15T09:10:21;9.40;77.30
11908;DHT22;6014;47.690;9.130;2024-02-15T09:12:50;9.30;77.20
11908;DHT22;6014;47.690;9.130;2024-02-15T09:15:18;9.50;77.00
11908;DHT22;6014;47.690;9.130;2024-02-15T09:17:46;9.50;75.30
11908;DHT22;6014;47.690;9.130;2024-02-15T09:20:16;9.60;75.60
11908;DHT22;6014;47.690;9.130;2024-02-15T09:22:48;9.80;73.50
11908;DHT22;6014;47.690;9.130;2024-02-15T09:25:16;9.90;70.70
11908;DHT22;6014;47.690;9.130;2024-02-15T09:27:45;10.20;72.80
11908;DHT22;6014;47.690;9.130;2024-02-15T09:30:14;10.10;75.20
11908;DHT22;6014;47.690;9.130;2024-02-15T09:32:43;9.60;76.60
11908;DHT22;6014;47.690;9.130;2024-02-15T09:35:13;9.20;79.80
11908;DHT22;6014;47.690;9.130;2024-02-15T09:37:47;9.50;80.80
11908;DHT22;6014;47.690;9.130;2024-02-15T09:40:17;10.00;77.30
11908;DHT22;6014;47.690;9.130;2024-02-15T09:42:47;10.30;74.40
11908;DHT22;6014;47.690;9.130;2024-02-15T09:45:15;9.90;76.30
11908;DHT22;6014;47.690;9.130;2024-02-15T09:47:45;9.80;76.70
11908;DHT22;6014;47.690;9.130;2024-02-15T09:50:16;9.70;77.90
11908;DHT22;6014;47.690;9.130;2024-02-15T09:52:49;9.90;77.00
11908;DHT22;6014;47.690;9.130;2024-02-15T09:55:18;10.20;73.70
11908;DHT22;6014;47.690;9.130;2024-02-15T09:57:47;10.20;73.40
11908;DHT22;6014;47.690;9.130;2024-02-15T10:00:16;10.30;75.30
11908;DHT22;6014;47.690;9.130;2024-02-15T10:02:49;10.40;72.60
11908;DHT22;6014;47.690;9.130;2024-02-15T10:05:19;10.60;69.20
11908;DHT22;6014;47.690;9.130;2024-02-15T10:07:51;11.10;67.10
11908;DHT22;6014;47.690;9.130;2024-02-15T10:10:21;11.20;65.20
11908;DHT22;6014;47.690;9.130;2024-02-15T10:12:50;11.20;64.30
11908;DHT22;6014;47.690;9.130;2024-02-15T10:15:28;11.30;62.20
11908;DHT22;6014;47.690;9.130;2024-02-15T10:18:00;11.20;62.80
11908;DHT22;6014;47.690;9.130;2024-02-15T10:20:29;11.40;61.90
11908;DHT22;6014;47.690;9.130;2024-02-15T10:23:12;11.40;61.60
11908;DHT22;6014;47.690;9.130;2024-02-15T10:25:45;11.30;62.40
11908;DHT22;6014;47.690;9.130;2024-02-15T10:28:20;11.20;63.70
11908;DHT22;6014;47.690;9.130;2024-02-15T10:30:50;11.30;60.80
11908;DHT22;6014;47.690;9.130;2024-02-15T10:33:26;11.00;59.50
11908;DHT22;6014;47.690;9.130;2024-02-15T10:36:05;11.20;59.90
11908;DHT22;6014;47.690;9.130;2024-02-15T10:38:36;11.20;59.00
11908;DHT22;6014;47.690;9.130;2024-02-15T10:41:05;11.00;61.10
11908;DHT22;6014;47.690;9.130;2024-02-15T10:43:33;11.10;63.10
11908;DHT22;6014;47.690;9.130;2024-02-15T10:46:02;10.80;62.10
11908;DHT22;6014;47.690;9.130;2024-02-15T10:48:31;10.60;63.60
11908;DHT22;6014;47.690;9.130;2024-02-15T10:51:03;10.40;64.40
11908;DHT22;6014;47.690;9.130;2024-02-15T10:53:40;10.20;63.10
11908;DHT22;6014;47.690;9.130;2024-02-15T10:56:18;10.00;63.40
11908;DHT22;6014;47.690;9.130;2024-02-15T10:58:47;10.10;63.60
11908;DHT22;6014;47.690;9.130;2024-02-15T11:01:18;10.50;64.20
11908;DHT22;6014;47.690;9.130;2024-02-15T11:03:51;10.60;63.60
11908;DHT22;6014;47.690;9.130;2024-02-15T11:06:20;10.80;60.60
11908;DHT22;6014;47.690;9.130;2024-02-15T11:08:51;11.30;58.40
11908;DHT22;6014;47.690;9.130;2024-02-15T11:11:19;11.60;58.10
11908;DHT22;6014;47.690;9.130;2024-02-15T11:13:48;11.90;57.40
11908;DHT22;6014;47.690;9.130;2024-02-15T11:16:40;11.90;55.60
11908;DHT22;6014;47.690;9.130;2024-02-15T11:19:09;11.80;56.00
11908;DHT22;6014;47.690;9.130;2024-02-15T11:21:53;12.20;55.20
11908;DHT22;6014;47.690;9.130;2024-02-15T11:24:29;12.30;54.70
11908;DHT22;6014;47.690;9.130;2024-02-15T11:27:01;12.30;54.40
11908;DHT22;6014;47.690;9.130;2024-02-15T11:29:50;12.30;54.50
11908;DHT22;6014;47.690;9.130;2024-02-15T11:32:40;12.50;54.10
11908;DHT22;6014;47.690;9.130;2024-02-15T11:35:18;12.50;52.50
11908;DHT22;6014;47.690;9.130;2024-02-15T11:37:58;12.70;52.70
11908;DHT22;6014;47.690;9.130;2024-02-15T11:40:28;12.60;52.50
11908;DHT22;6014;47.690;9.130;2024-02-15T11:46:03;12.60;52.10
11908;DHT22;6014;47.690;9.130;2024-02-15T11:48:36;12.60;51.60
11908;DHT22;6014;47.690;9.130;2024-02-15T11:51:06;12.60;51.10
11908;DHT22;6014;47.690;9.130;2024-02-15T11:53:44;12.70;50.90
11908;DHT22;6014;47.690;9.130;2024-02-15T11:56:23;12.70;52.20
11908;DHT22;6014;47.690;9.130;2024-02-15T11:59:10;12.90;50.20
11908;DHT22;6014;47.690;9.130;2024-02-15T12:01:45;13.30;49.90
11908;DHT22;6014;47.690;9.130;2024-02-15T12:04:31;13.60;47.80
11908;DHT22;6014;47.690;9.130;2024-02-15T12:07:17;13.20;48.90
11908;DHT22;6014;47.690;9.130;2024-02-15T12:10:03;13.00;48.70
11908;DHT22;6014;47.690;9.130;2024-02-15T12:12:54;13.10;49.50
11908;DHT22;6014;47.690;9.130;2024-02-15T12:15:38;13.20;47.80
11908;DHT22;6014;47.690;9.130;2024-02-15T12:18:24;13.10;48.50
11908;DHT22;6014;47.690;9.130;2024-02-15T12:21:14;13.30;48.30
11908;DHT22;6014;47.690;9.130;2024-02-15T12:23:44;13.80;47.30
11908;DHT22;6014;47.690;9.130;2024-02-15T12:26:13;14.00;46.50
11908;DHT22;6014;47.690;9.130;2024-02-15T12:28:43;13.80;46.40
11908;DHT22;6014;47.690;9.130;2024-02-15T12:31:13;13.60;46.70
11908;DHT22;6014;47.690;9.130;2024-02-15T12:33:42;13.50;46.70
11908;DHT22;6014;47.690;9.130;2024-02-15T12:36:10;13.70;46.20
11908;DHT22;6014;47.690;9.130;2024-02-15T12:38:38;13.60;46.60
11908;DHT22;6014;47.690;9.130;2024-02-15T12:41:18;13.70;46.50
11908;DHT22;6014;47.690;9.130;2024-02-15T12:43:52;14.10;46.40
11908;DHT22;6014;47.690;9.130;2024-02-15T12:46:20;14.00;46.20
11908;DHT22;6014;47.690;9.130;2024-02-15T12:48:49;14.10;45.60
11908;DHT22;6014;47.690;9.130;2024-02-15T12:51:19;14.50;45.40
11908;DHT22;6014;47.690;9.130;2024-02-15T12:53:48;14.60;44.50
11908;DHT22;6014;47.690;9.130;2024-02-15T12:56:20;14.80;44.10
11908;DHT22;6014;47.690;9.130;2024-02-15T12:58:52;14.60;44.30
11908;DHT22;6014;47.690;9.130;2024-02-15T13:01:20;14.60;44.40
11908;DHT22;6014;47.690;9.130;2024-02-15T13:03:48;14.50;44.20
11908;DHT22;6014;47.690;9.130;2024-02-15T13:06:18;14.70;44.40
11908;DHT22;6014;47.690;9.130;2024-02-15T13:08:50;15.00;42.80
11908;DHT22;6014;47.690;9.130;2024-02-15T13:11:19;15.10;42.80
11908;DHT22;6014;47.690;9.130;2024-02-15T13:13:47;15.10;42.40
11908;DHT22;6014;47.690;9.130;2024-02-15T13:16:16;15.30;42.10
11908;DHT22;6014;47.690;9.130;2024-02-15T13:18:45;15.20;42.30
11908;DHT22;6014;47.690;9.130;2024-02-15T13:21:14;15.40;42.30
11908;DHT22;6014;47.690;9.130;2024-02-15T13:23:44;15.80;40.80
11908;DHT22;6014;47.690;9.130;2024-02-15T13:26:12;15.80;41.30
11908;DHT22;6014;47.690;9.130;2024-02-15T13:28:40;15.80;41.00
11908;DHT22;6014;47.690;9.130;2024-02-15T13:31:08;15.80;40.90
11908;DHT22;6014;47.690;9.130;2024-02-15T13:33:39;15.80;40.90
11908;DHT22;6014;47.690;9.130;2024-02-15T13:36:08;15.90;40.00
11908;DHT22;6014;47.690;9.130;2024-02-15T13:38:38;15.90;39.30
11908;DHT22;6014;47.690;9.130;2024-02-15T13:41:06;15.60;40.20
11908;DHT22;6014;47.690;9.130;2024-02-15T13:43:35;15.80;39.10
11908;DHT22;6014;47.690;9.130;2024-02-15T13:46:03;16.10;39.10
11908;DHT22;6014;47.690;9.130;2024-02-15T13:48:31;15.90;39.70
11908;DHT22;6014;47.690;9.130;2024-02-15T13:51:01;15.80;39.80
11908;DHT22;6014;47.690;9.130;2024-02-15T13:53:30;15.90;38.80
11908;DHT22;6014;47.690;9.130;2024-02-15T13:55:59;16.00;38.80
11908;DHT22;6014;47.690;9.130;2024-02-15T13:58:27;16.30;38.40
11908;DHT22;6014;47.690;9.130;2024-02-15T14:00:55;16.60;37.60
11908;DHT22;6014;47.690;9.130;2024-02-15T14:03:24;16.40;37.30
11908;DHT22;6014;47.690;9.130;2024-02-15T14:05:52;16.70;38.10
11908;DHT22;6014;47.690;9.130;2024-02-15T14:08:22;16.80;37.50
11908;DHT22;6014;47.690;9.130;2024-02-15T14:10:52;16.60;37.00
11908;DHT22;6014;47.690;9.130;2024-02-15T14:13:20;16.80;37.20
11908;DHT22;6014;47.690;9.130;2024-02-15T14:15:49;16.50;38.10
11908;DHT22;6014;47.690;9.130;2024-02-15T14:18:18;16.30;37.90
11908;DHT22;6014;47.690;9.130;2024-02-15T14:20:49;16.10;38.50
11908;DHT22;6014;47.690;9.130;2024-02-15T14:23:18;16.00;38.10
11908;DHT22;6014;47.690;9.130;2024-02-15T14:25:47;15.90;38.60
11908;DHT22;6014;47.690;9.130;2024-02-15T14:28:18;15.50;39.00
11908;DHT22;6014;47.690;9.130;2024-02-15T14:30:46;15.50;39.00
11908;DHT22;6014;47.690;9.130;2024-02-15T14:33:32;15.50;39.20
11908;DHT22;6014;47.690;9.130;2024-02-15T14:36:02;15.40;40.20
11908;DHT22;6014;47.690;9.130;2024-02-15T14:38:31;15.20;40.50
11908;DHT22;6014;47.690;9.130;2024-02-15T14:41:02;15.20;40.10
11908;DHT22;6014;47.690;9.130;2024-02-15T14:43:34;15.20;39.30
11908;DHT22;6014;47.690;9.130;2024-02-15T14:46:02;15.20;38.20
11908;DHT22;6014;47.690;9.130;2024-02-15T14:48:32;15.10;38.30
11908;DHT22;6014;47.690;9.130;2024-02-15T14:51:01;14.90;38.40
11908;DHT22;6014;47.690;9.130;2024-02-15T14:53:29;14.70;38.60
11908;DHT22;6014;47.690;9.130;2024-02-15T14:56:01;14.40;39.00
11908;DHT22;6014;47.690;9.130;2024-02-15T14:58:31;14.40;39.60
11908;DHT22;6014;47.690;9.130;2024-02-15T15:00:59;14.40;40.10
11908;DHT22;6014;47.690;9.130;2024-02-15T15:03:36;14.30;40.00
11908;DHT22;6014;47.690;9.130;2024-02-15T15:06:07;14.20;39.30
11908;DHT22;6014;47.690;9.130;2024-02-15T15:08:53;14.10;39.00
11908;DHT22;6014;47.690;9.130;2024-02-15T15:11:51;14.10;39.40
11908;DHT22;6014;47.690;9.130;2024-02-15T15:14:37;14.00;39.50
11908;DHT22;6014;47.690;9.130;2024-02-15T15:17:18;14.00;39.10
11908;DHT22;6014;47.690;9.130;2024-02-15T15:19:48;14.00;38.80
11908;DHT22;6014;47.690;9.130;2024-02-15T15:22:16;14.00;39.10
11908;DHT22;6014;47.690;9.130;2024-02-15T15:24:48;13.90;39.20
11908;DHT22;6014;47.690;9.130;2024-02-15T15:27:18;13.90;39.70
11908;DHT22;6014;47.690;9.130;2024-02-15T15:29:46;13.90;39.60
11908;DHT22;6014;47.690;9.130;2024-02-15T15:32:14;13.90;39.90
11908;DHT22;6014;47.690;9.130;2024-02-15T15:37:53;13.80;42.30
11908;DHT22;6014;47.690;9.130;2024-02-15T15:40:21;13.90;41.90
11908;DHT22;6014;47.690;9.130;2024-02-15T15:42:51;13.80;42.70
11908;DHT22;6014;47.690;9.130;2024-02-15T15:45:19;13.80;43.00
11908;DHT22;6014;47.690;9.130;2024-02-15T15:47:48;13.80;44.50
11908;DHT22;6014;47.690;9.130;2024-02-15T15:50:16;13.60;44.10
11908;DHT22;6014;47.690;9.130;2024-02-15T15:53:04;13.60;44.90
11908;DHT22;6014;47.690;9.130;2024-02-15T15:55:42;13.60;44.80
11908;DHT22;6014;47.690;9.130;2024-02-15T15:58:29;13.30;47.20
11908;DHT22;6014;47.690;9.130;2024-02-15T16:01:01;12.90;48.60
11908;DHT22;6014;47.690;9.130;2024-02-15T16:03:30;12.80;49.10
11908;DHT22;6014;47.690;9.130;2024-02-15T16:05:59;12.70;49.60
11908;DHT22;6014;47.690;9.130;2024-02-15T16:08:29;12.40;51.40
11908;DHT22;6014;47.690;9.130;2024-02-15T16:11:07;12.40;51.50
11908;DHT22;6014;47.690;9.130;2024-02-15T16:13:37;12.40;51.50
11908;DHT22;6014;47.690;9.130;2024-02-15T16:16:06;12.30;51.00
11908;DHT22;6014;47.690;9.130;2024-02-15T16:18:34;12.20;51.30
11908;DHT22;6014;47.690;9.130;2024-02-15T16:21:03;12.00;51.20
11908;DHT22;6014;47.690;9.130;2024-02-15T16:23:31;12.00;51.80
11908;DHT22;6014;47.690;9.130;2024-02-15T16:25:59;11.90;52.50